sensor_id;sensor_type;location;lat;lon;timestamp;P1;durP1;ratioP1;P2;durP2;ratioP2
62588;SDS011;58504;48.770;9.148;2022-10-16T00:00:46;0.35;;;0.35;;
62588;SDS011;58504;48.770;9.148;2022-10-16T00:03:12;0.10;;;0.10;;
62588;SDS011;58504;48.770;9.148;2022-10-16T00:05:40;0.60;;;0.55;;
62588;SDS011;58504;48.770;9.148;2022-10-16T00:08:08;0.40;;;0.40;;
62588;SDS011;58504;48.770;9.148;2022-10-16T00:10:35;0.60;;;0.35;;
62588;SDS011;58504;48.770;9.148;2022-10-16T00:13:02;1.35;;;0.47;;
62588;SDS011;58504;48.770;9.148;2022-10-16T00:15:32;0.20;;;0.20;;
62588;SDS011;58504;48.770;9.148;2022-10-16T00:18:02;0.85;;;0.40;;
62588;SDS011;58504;48.770;9.148;2022-10-16T00:20:30;1.73;;;0.20;;
62588;SDS011;58504;48.770;9.148;2022-10-16T00:22:59;0.30;;;0.30;;
62588;SDS011;58504;48.770;9.148;2022-10-16T00:25:26;0.63;;;0.20;;
62588;SDS011;58504;48.770;9.148;2022-10-16T00:27:53;0.20;;;0.20;;
62588;SDS011;58504;48.770;9.148;2022-10-16T00:30:20;1.52;;;0.50;;
62588;SDS011;58504;48.770;9.148;2022-10-16T00:32:47;0.50;;;0.50;;
62588;SDS011;58504;48.770;9.148;2022-10-16T00:35:15;0.55;;;0.40;;
62588;SDS011;58504;48.770;9.148;2022-10-16T00:37:41;1.00;;;0.40;;
62588;SDS011;58504;48.770;9.148;2022-10-16T00:40:09;1.05;;;0.30;;
62588;SDS011;58504;48.770;9.148;2022-10-16T00:42:36;0.30;;;0.30;;
62588;SDS011;58504;48.770;9.148;2022-10-16T00:45:03;1.33;;;0.43;;
62588;SDS011;58504;48.770;9.148;2022-10-16T00:47:32;0.20;;;0.20;;
62588;SDS011;58504;48.770;9.148;2022-10-16T00:50:05;0.47;;;0.47;;
62588;SDS011;58504;48.770;9.148;2022-10-16T00:52:35;0.30;;;0.28;;
62588;SDS011;58504;48.770;9.148;2022-10-16T00:55:05;0.20;;;0.20;;
62588;SDS011;58504;48.770;9.148;2022-10-16T00:57:34;0.35;;;0.35;;
62588;SDS011;58504;48.770;9.148;2022-10-16T01:00:03;0.75;;;0.43;;
62588;SDS011;58504;48.770;9.148;2022-10-16T01:02:32;0.30;;;0.30;;
62588;SDS011;58504;48.770;9.148;2022-10-16T01:04:59;1.52;;;0.30;;
62588;SDS011;58504;48.770;9.148;2022-10-16T01:07:30;0.40;;;0.40;;
62588;SDS011;58504;48.770;9.148;2022-10-16T01:10:07;0.20;;;0.20;;
62588;SDS011;58504;48.770;9.148;2022-10-16T01:12:41;0.55;;;0.50;;
62588;SDS011;58504;48.770;9.148;2022-10-16T01:15:11;2.08;;;0.70;;
62588;SDS011;58504;48.770;9.148;2022-10-16T01:17:45;0.20;;;0.20;;
62588;SDS011;58504;48.770;9.148;2022-10-16T01:20:18;0.30;;;0.30;;
62588;SDS011;58504;48.770;9.148;2022-10-16T01:23:10;0.55;;;0.50;;
62588;SDS011;58504;48.770;9.148;2022-10-16T01:28:46;0.38;;;0.38;;
62588;SDS011;58504;48.770;9.148;2022-10-16T01:31:18;1.10;;;0.40;;
62588;SDS011;58504;48.770;9.148;2022-10-16T01:33:50;0.45;;;0.45;;
62588;SDS011;58504;48.770;9.148;2022-10-16T01:36:21;4.60;;;0.68;;
62588;SDS011;58504;48.770;9.148;2022-10-16T01:38:53;0.40;;;0.40;;
62588;SDS011;58504;48.770;9.148;2022-10-16T01:41:24;1.75;;;0.40;;
62588;SDS011;58504;48.770;9.148;2022-10-16T01:43:59;0.40;;;0.40;;
62588;SDS011;58504;48.770;9.148;2022-10-16T01:46:30;0.40;;;0.40;;
62588;SDS011;58504;48.770;9.148;2022-10-16T01:48:58;0.32;;;0.32;;
62588;SDS011;58504;48.770;9.148;2022-10-16T01:51:26;0.50;;;0.50;;
62588;SDS011;58504;48.770;9.148;2022-10-16T01:53:55;0.30;;;0.30;;
62588;SDS011;58504;48.770;9.148;2022-10-16T01:56:25;0.35;;;0.35;;
62588;SDS011;58504;48.770;9.148;2022-10-16T01:58:54;0.28;;;0.28;;
62588;SDS011;58504;48.770;9.148;2022-10-16T02:01:25;0.20;;;0.20;;
62588;SDS011;58504;48.770;9.148;2022-10-16T02:03:54;0.40;;;0.40;;
62588;SDS011;58504;48.770;9.148;2022-10-16T02:06:24;0.45;;;0.45;;
62588;SDS011;58504;48.770;9.148;2022-10-16T02:08:51;0.57;;;0.30;;
62588;SDS011;58504;48.770;9.148;2022-10-16T02:11:19;0.40;;;0.40;;
62588;SDS011;58504;48.770;9.148;2022-10-16T02:13:46;0.30;;;0.30;;
62588;SDS011;58504;48.770;9.148;2022-10-16T02:16:17;0.30;;;0.30;;
62588;SDS011;58504;48.770;9.148;2022-10-16T02:18:45;0.28;;;0.22;;
62588;SDS011;58504;48.770;9.148;2022-10-16T02:21:13;3.05;;;0.35;;
62588;SDS011;58504;48.770;9.148;2022-10-16T02:23:45;0.30;;;0.30;;
62588;SDS011;58504;48.770;9.148;2022-10-16T02:26:19;0.20;;;0.20;;
62588;SDS011;58504;48.770;9.148;2022-10-16T02:28:52;0.38;;;0.38;;
62588;SDS011;58504;48.770;9.148;2022-10-16T02:31:23;0.40;;;0.40;;
62588;SDS011;58504;48.770;9.148;2022-10-16T02:33:55;0.57;;;0.57;;
62588;SDS011;58504;48.770;9.148;2022-10-16T02:36:24;0.32;;;0.30;;
62588;SDS011;58504;48.770;9.148;2022-10-16T02:38:52;0.30;;;0.30;;
62588;SDS011;58504;48.770;9.148;2022-10-16T02:41:20;0.95;;;0.35;;
62588;SDS011;58504;48.770;9.148;2022-10-16T02:43:47;0.35;;;0.35;;
62588;SDS011;58504;48.770;9.148;2022-10-16T02:46:14;0.43;;;0.43;;
62588;SDS011;58504;48.770;9.148;2022-10-16T02:48:40;0.45;;;0.45;;
62588;SDS011;58504;48.770;9.148;2022-10-16T02:51:09;0.68;;;0.68;;
62588;SDS011;58504;48.770;9.148;2022-10-16T02:53:35;0.90;;;0.52;;
62588;SDS011;58504;48.770;9.148;2022-10-16T02:56:02;0.30;;;0.30;;
62588;SDS011;58504;48.770;9.148;2022-10-16T02:58:29;0.40;;;0.40;;
62588;SDS011;58504;48.770;9.148;2022-10-16T03:00:56;0.43;;;0.25;;
62588;SDS011;58504;48.770;9.148;2022-10-16T03:03:22;0.45;;;0.45;;
62588;SDS011;58504;48.770;9.148;2022-10-16T03:05:49;0.20;;;0.20;;
62588;SDS011;58504;48.770;9.148;2022-10-16T03:08:17;0.28;;;0.28;;
62588;SDS011;58504;48.770;9.148;2022-10-16T03:10:48;0.40;;;0.40;;
62588;SDS011;58504;48.770;9.148;2022-10-16T03:13:15;0.25;;;0.25;;
62588;SDS011;58504;48.770;9.148;2022-10-16T03:15:42;0.20;;;0.20;;
62588;SDS011;58504;48.770;9.148;2022-10-16T03:18:09;0.35;;;0.35;;
62588;SDS011;58504;48.770;9.148;2022-10-16T03:20:36;0.28;;;0.28;;
62588;SDS011;58504;48.770;9.148;2022-10-16T03:23:03;0.20;;;0.20;;
62588;SDS011;58504;48.770;9.148;2022-10-16T03:25:31;0.50;;;0.50;;
62588;SDS011;58504;48.770;9.148;2022-10-16T03:27:57;0.22;;;0.22;;
62588;SDS011;58504;48.770;9.148;2022-10-16T03:30:24;0.35;;;0.35;;
62588;SDS011;58504;48.770;9.148;2022-10-16T03:32:51;0.20;;;0.20;;
62588;SDS011;58504;48.770;9.148;2022-10-16T03:35:19;0.30;;;0.30;;
62588;SDS011;58504;48.770;9.148;2022-10-16T03:37:45;0.20;;;0.20;;
62588;SDS011;58504;48.770;9.148;2022-10-16T03:40:12;0.30;;;0.30;;
62588;SDS011;58504;48.770;9.148;2022-10-16T03:42:41;0.47;;;0.47;;
62588;SDS011;58504;48.770;9.148;2022-10-16T03:45:08;0.50;;;0.40;;
62588;SDS011;58504;48.770;9.148;2022-10-16T03:47:36;0.30;;;0.30;;
62588;SDS011;58504;48.770;9.148;2022-10-16T03:50:03;0.40;;;0.40;;
62588;SDS011;58504;48.770;9.148;2022-10-16T03:52:31;0.25;;;0.25;;
62588;SDS011;58504;48.770;9.148;2022-10-16T03:54:58;0.35;;;0.35;;
62588;SDS011;58504;48.770;9.148;2022-10-16T03:57:24;0.38;;;0.38;;
62588;SDS011;58504;48.770;9.148;2022-10-16T03:59:52;0.28;;;0.28;;
62588;SDS011;58504;48.770;9.148;2022-10-16T04:02:19;0.13;;;0.13;;
62588;SDS011;58504;48.770;9.148;2022-10-16T04:04:46;0.30;;;0.30;;
62588;SDS011;58504;48.770;9.148;2022-10-16T04:07:13;0.70;;;0.40;;
62588;SDS011;58504;48.770;9.148;2022-10-16T04:09:39;0.30;;;0.30;;
62588;SDS011;58504;48.770;9.148;2022-10-16T04:12:07;0.30;;;0.30;;
62588;SDS011;58504;48.770;9.148;2022-10-16T04:14:33;0.43;;;0.43;;
62588;SDS011;58504;48.770;9.148;2022-10-16T04:17:02;0.30;;;0.30;;
62588;SDS011;58504;48.770;9.148;2022-10-16T04:19:28;0.47;;;0.47;;
62588;SDS011;58504;48.770;9.148;2022-10-16T04:21:55;0.30;;;0.30;;
62588;SDS011;58504;48.770;9.148;2022-10-16T04:24:22;0.25;;;0.25;;
62588;SDS011;58504;48.770;9.148;2022-10-16T04:26:49;0.28;;;0.22;;
62588;SDS011;58504;48.770;9.148;2022-10-16T04:29:15;0.32;;;0.32;;
62588;SDS011;58504;48.770;9.148;2022-10-16T04:31:42;0.47;;;0.47;;
62588;SDS011;58504;48.770;9.148;2022-10-16T04:34:10;0.43;;;0.40;;
62588;SDS011;58504;48.770;9.148;2022-10-16T04:36:37;0.43;;;0.43;;
62588;SDS011;58504;48.770;9.148;2022-10-16T04:39:04;0.28;;;0.28;;
62588;SDS011;58504;48.770;9.148;2022-10-16T04:41:30;0.32;;;0.32;;
62588;SDS011;58504;48.770;9.148;2022-10-16T04:43:57;0.32;;;0.32;;
62588;SDS011;58504;48.770;9.148;2022-10-16T04:46:24;1.15;;;0.30;;
62588;SDS011;58504;48.770;9.148;2022-10-16T04:48:51;0.10;;;0.10;;
62588;SDS011;58504;48.770;9.148;2022-10-16T04:51:19;0.50;;;0.50;;
62588;SDS011;58504;48.770;9.148;2022-10-16T04:53:46;0.30;;;0.30;;
62588;SDS011;58504;48.770;9.148;2022-10-16T04:56:13;0.22;;;0.22;;
62588;SDS011;58504;48.770;9.148;2022-10-16T04:58:40;0.30;;;0.30;;
62588;SDS011;58504;48.770;9.148;2022-10-16T05:01:07;0.30;;;0.30;;
62588;SDS011;58504;48.770;9.148;2022-10-16T05:03:34;0.30;;;0.30;;
62588;SDS011;58504;48.770;9.148;2022-10-16T05:06:00;0.20;;;0.20;;
62588;SDS011;58504;48.770;9.148;2022-10-16T05:08:30;0.35;;;0.35;;
62588;SDS011;58504;48.770;9.148;2022-10-16T05:10:57;0.30;;;0.30;;
62588;SDS011;58504;48.770;9.148;2022-10-16T05:13:23;0.40;;;0.40;;
62588;SDS011;58504;48.770;9.148;2022-10-16T05:15:50;0.40;;;0.25;;
62588;SDS011;58504;48.770;9.148;2022-10-16T05:18:17;0.22;;;0.22;;
62588;SDS011;58504;48.770;9.148;2022-10-16T05:20:43;0.30;;;0.30;;
62588;SDS011;58504;48.770;9.148;2022-10-16T05:23:10;0.22;;;0.22;;
62588;SDS011;58504;48.770;9.148;2022-10-16T05:25:38;0.77;;;0.30;;
62588;SDS011;58504;48.770;9.148;2022-10-16T05:28:05;0.30;;;0.30;;
62588;SDS011;58504;48.770;9.148;2022-10-16T05:30:32;1.15;;;0.40;;
62588;SDS011;58504;48.770;9.148;2022-10-16T05:32:59;0.22;;;0.22;;
62588;SDS011;58504;48.770;9.148;2022-10-16T05:35:26;0.50;;;0.50;;
62588;SDS011;58504;48.770;9.148;2022-10-16T05:37:52;0.20;;;0.20;;
62588;SDS011;58504;48.770;9.148;2022-10-16T05:40:19;0.35;;;0.35;;
62588;SDS011;58504;48.770;9.148;2022-10-16T05:42:47;0.28;;;0.28;;
62588;SDS011;58504;48.770;9.148;2022-10-16T05:45:14;0.80;;;0.45;;
62588;SDS011;58504;48.770;9.148;2022-10-16T05:47:41;0.30;;;0.30;;
62588;SDS011;58504;48.770;9.148;2022-10-16T05:50:08;0.73;;;0.40;;
62588;SDS011;58504;48.770;9.148;2022-10-16T05:52:35;0.43;;;0.40;;
62588;SDS011;58504;48.770;9.148;2022-10-16T05:55:02;0.38;;;0.38;;
62588;SDS011;58504;48.770;9.148;2022-10-16T05:57:29;0.20;;;0.20;;
62588;SDS011;58504;48.770;9.148;2022-10-16T05:59:57;0.30;;;0.30;;
62588;SDS011;58504;48.770;9.148;2022-10-16T06:02:24;0.20;;;0.20;;
62588;SDS011;58504;48.770;9.148;2022-10-16T06:04:51;0.40;;;0.40;;
62588;SDS011;58504;48.770;9.148;2022-10-16T06:07:19;0.20;;;0.20;;
62588;SDS011;58504;48.770;9.148;2022-10-16T06:09:47;0.20;;;0.20;;
62588;SDS011;58504;48.770;9.148;2022-10-16T06:12:14;0.20;;;0.20;;
62588;SDS011;58504;48.770;9.148;2022-10-16T06:14:41;0.20;;;0.20;;
62588;SDS011;58504;48.770;9.148;2022-10-16T06:17:09;0.65;;;0.60;;
62588;SDS011;58504;48.770;9.148;2022-10-16T06:19:36;0.63;;;0.45;;
62588;SDS011;58504;48.770;9.148;2022-10-16T06:22:03;0.20;;;0.20;;
62588;SDS011;58504;48.770;9.148;2022-10-16T06:24:29;0.30;;;0.30;;
62588;SDS011;58504;48.770;9.148;2022-10-16T06:26:56;0.30;;;0.30;;
62588;SDS011;58504;48.770;9.148;2022-10-16T06:29:23;1.65;;;0.20;;
62588;SDS011;58504;48.770;9.148;2022-10-16T06:31:50;0.30;;;0.30;;
62588;SDS011;58504;48.770;9.148;2022-10-16T06:34:19;0.28;;;0.28;;
62588;SDS011;58504;48.770;9.148;2022-10-16T06:36:46;0.30;;;0.30;;
62588;SDS011;58504;48.770;9.148;2022-10-16T06:39:12;0.30;;;0.30;;
62588;SDS011;58504;48.770;9.148;2022-10-16T06:41:39;0.30;;;0.30;;
62588;SDS011;58504;48.770;9.148;2022-10-16T06:44:06;0.22;;;0.22;;
62588;SDS011;58504;48.770;9.148;2022-10-16T06:46:33;0.30;;;0.30;;
62588;SDS011;58504;48.770;9.148;2022-10-16T06:49:00;0.40;;;0.40;;
62588;SDS011;58504;48.770;9.148;2022-10-16T06:51:28;0.30;;;0.30;;
62588;SDS011;58504;48.770;9.148;2022-10-16T06:53:57;0.40;;;0.40;;
62588;SDS011;58504;48.770;9.148;2022-10-16T06:56:24;0.30;;;0.30;;
62588;SDS011;58504;48.770;9.148;2022-10-16T06:58:52;0.30;;;0.30;;
62588;SDS011;58504;48.770;9.148;2022-10-16T07:01:21;0.55;;;0.55;;
62588;SDS011;58504;48.770;9.148;2022-10-16T07:03:49;0.40;;;0.40;;
62588;SDS011;58504;48.770;9.148;2022-10-16T07:06:17;0.25;;;0.25;;
62588;SDS011;58504;48.770;9.148;2022-10-16T07:08:47;0.30;;;0.30;;
62588;SDS011;58504;48.770;9.148;2022-10-16T07:11:14;0.22;;;0.22;;
62588;SDS011;58504;48.770;9.148;2022-10-16T07:13:43;0.40;;;0.40;;
62588;SDS011;58504;48.770;9.148;2022-10-16T07:16:11;0.30;;;0.30;;
62588;SDS011;58504;48.770;9.148;2022-10-16T07:18:39;0.20;;;0.20;;
62588;SDS011;58504;48.770;9.148;2022-10-16T07:21:08;0.30;;;0.30;;
62588;SDS011;58504;48.770;9.148;2022-10-16T07:23:37;0.30;;;0.30;;
62588;SDS011;58504;48.770;9.148;2022-10-16T07:26:06;0.30;;;0.30;;
62588;SDS011;58504;48.770;9.148;2022-10-16T07:28:33;0.38;;;0.38;;
62588;SDS011;58504;48.770;9.148;2022-10-16T07:31:00;0.20;;;0.20;;
62588;SDS011;58504;48.770;9.148;2022-10-16T07:33:28;0.40;;;0.40;;
62588;SDS011;58504;48.770;9.148;2022-10-16T07:35:55;0.40;;;0.40;;
62588;SDS011;58504;48.770;9.148;2022-10-16T07:38:22;0.40;;;0.40;;
62588;SDS011;58504;48.770;9.148;2022-10-16T07:40:55;0.28;;;0.28;;
62588;SDS011;58504;48.770;9.148;2022-10-16T07:43:23;0.30;;;0.30;;
62588;SDS011;58504;48.770;9.148;2022-10-16T07:45:50;0.22;;;0.22;;
62588;SDS011;58504;48.770;9.148;2022-10-16T07:48:17;0.20;;;0.20;;
62588;SDS011;58504;48.770;9.148;2022-10-16T07:50:44;0.80;;;0.50;;
62588;SDS011;58504;48.770;9.148;2022-10-16T07:53:11;0.40;;;0.40;;
62588;SDS011;58504;48.770;9.148;2022-10-16T07:55:38;0.40;;;0.40;;
62588;SDS011;58504;48.770;9.148;2022-10-16T07:58:05;0.22;;;0.22;;
62588;SDS011;58504;48.770;9.148;2022-10-16T08:00:35;0.30;;;0.30;;
62588;SDS011;58504;48.770;9.148;2022-10-16T08:03:02;1.95;;;0.40;;
62588;SDS011;58504;48.770;9.148;2022-10-16T08:05:30;0.25;;;0.25;;
62588;SDS011;58504;48.770;9.148;2022-10-16T08:07:58;0.20;;;0.20;;
62588;SDS011;58504;48.770;9.148;2022-10-16T08:10:26;0.32;;;0.32;;
62588;SDS011;58504;48.770;9.148;2022-10-16T08:12:54;0.25;;;0.25;;
62588;SDS011;58504;48.770;9.148;2022-10-16T08:15:21;0.30;;;0.30;;
62588;SDS011;58504;48.770;9.148;2022-10-16T08:17:55;0.25;;;0.25;;
62588;SDS011;58504;48.770;9.148;2022-10-16T08:20:23;0.30;;;0.30;;
62588;SDS011;58504;48.770;9.148;2022-10-16T08:22:50;0.40;;;0.40;;
62588;SDS011;58504;48.770;9.148;2022-10-16T08:25:16;0.40;;;0.40;;
62588;SDS011;58504;48.770;9.148;2022-10-16T08:27:43;0.30;;;0.30;;
62588;SDS011;58504;48.770;9.148;2022-10-16T08:30:10;0.35;;;0.35;;
62588;SDS011;58504;48.770;9.148;2022-10-16T08:32:37;0.43;;;0.43;;
62588;SDS011;58504;48.770;9.148;2022-10-16T08:35:06;0.25;;;0.25;;
62588;SDS011;58504;48.770;9.148;2022-10-16T08:37:34;0.32;;;0.32;;
62588;SDS011;58504;48.770;9.148;2022-10-16T08:40:00;0.43;;;0.43;;
62588;SDS011;58504;48.770;9.148;2022-10-16T08:42:30;0.38;;;0.38;;
62588;SDS011;58504;48.770;9.148;2022-10-16T08:45:15;0.28;;;0.28;;
62588;SDS011;58504;48.770;9.148;2022-10-16T08:50:21;0.20;;;0.20;;
62588;SDS011;58504;48.770;9.148;2022-10-16T08:52:50;0.40;;;0.40;;
62588;SDS011;58504;48.770;9.148;2022-10-16T08:55:23;0.43;;;0.43;;
62588;SDS011;58504;48.770;9.148;2022-10-16T08:57:57;0.50;;;0.50;;
62588;SDS011;58504;48.770;9.148;2022-10-16T09:00:24;0.35;;;0.35;;
62588;SDS011;58504;48.770;9.148;2022-10-16T09:02:52;0.50;;;0.50;;
62588;SDS011;58504;48.770;9.148;2022-10-16T09:05:33;0.93;;;0.50;;
62588;SDS011;58504;48.770;9.148;2022-10-16T09:08:16;0.22;;;0.22;;
62588;SDS011;58504;48.770;9.148;2022-10-16T09:10:55;0.40;;;0.40;;
62588;SDS011;58504;48.770;9.148;2022-10-16T09:13:26;0.45;;;0.45;;
62588;SDS011;58504;48.770;9.148;2022-10-16T09:15:58;1.55;;;0.47;;
62588;SDS011;58504;48.770;9.148;2022-10-16T09:18:35;1.73;;;0.52;;
62588;SDS011;58504;48.770;9.148;2022-10-16T09:23:37;3.45;;;0.90;;
62588;SDS011;58504;48.770;9.148;2022-10-16T09:26:05;1.30;;;0.73;;
62588;SDS011;58504;48.770;9.148;2022-10-16T09:28:35;1.50;;;1.20;;
62588;SDS011;58504;48.770;9.148;2022-10-16T09:31:02;2.17;;;0.90;;
62588;SDS011;58504;48.770;9.148;2022-10-16T09:33:29;2.15;;;0.73;;
62588;SDS011;58504;48.770;9.148;2022-10-16T09:35:59;3.55;;;1.00;;
62588;SDS011;58504;48.770;9.148;2022-10-16T09:38:32;0.70;;;0.70;;
62588;SDS011;58504;48.770;9.148;2022-10-16T09:41:01;4.07;;;1.20;;
62588;SDS011;58504;48.770;9.148;2022-10-16T09:43:31;4.18;;;0.95;;
62588;SDS011;58504;48.770;9.148;2022-10-16T09:46:01;1.10;;;1.00;;
62588;SDS011;58504;48.770;9.148;2022-10-16T09:48:31;2.25;;;0.90;;
62588;SDS011;58504;48.770;9.148;2022-10-16T09:51:03;5.10;;;1.23;;
62588;SDS011;58504;48.770;9.148;2022-10-16T09:53:40;3.22;;;0.90;;
62588;SDS011;58504;48.770;9.148;2022-10-16T09:56:09;1.73;;;1.10;;
62588;SDS011;58504;48.770;9.148;2022-10-16T09:58:41;2.33;;;0.95;;
62588;SDS011;58504;48.770;9.148;2022-10-16T10:01:11;3.97;;;1.10;;
62588;SDS011;58504;48.770;9.148;2022-10-16T10:03:40;2.40;;;0.85;;
62588;SDS011;58504;48.770;9.148;2022-10-16T10:06:16;1.23;;;0.70;;
62588;SDS011;58504;48.770;9.148;2022-10-16T10:11:47;2.60;;;0.75;;
62588;SDS011;58504;48.770;9.148;2022-10-16T10:14:17;2.25;;;1.25;;
62588;SDS011;58504;48.770;9.148;2022-10-16T10:16:46;4.85;;;1.10;;
62588;SDS011;58504;48.770;9.148;2022-10-16T10:19:14;1.80;;;1.08;;
62588;SDS011;58504;48.770;9.148;2022-10-16T10:21:41;1.15;;;1.05;;
62588;SDS011;58504;48.770;9.148;2022-10-16T10:24:10;3.40;;;1.08;;
62588;SDS011;58504;48.770;9.148;2022-10-16T10:26:39;1.33;;;1.23;;
62588;SDS011;58504;48.770;9.148;2022-10-16T10:29:14;1.88;;;1.17;;
62588;SDS011;58504;48.770;9.148;2022-10-16T10:31:52;1.15;;;1.00;;
62588;SDS011;58504;48.770;9.148;2022-10-16T10:34:34;3.13;;;1.20;;
62588;SDS011;58504;48.770;9.148;2022-10-16T10:37:16;2.08;;;1.10;;
62588;SDS011;58504;48.770;9.148;2022-10-16T10:39:56;1.90;;;1.30;;
62588;SDS011;58504;48.770;9.148;2022-10-16T10:42:35;1.05;;;1.05;;
62588;SDS011;58504;48.770;9.148;2022-10-16T10:45:11;4.15;;;1.27;;
62588;SDS011;58504;48.770;9.148;2022-10-16T10:47:47;1.40;;;1.02;;
62588;SDS011;58504;48.770;9.148;2022-10-16T10:50:22;0.82;;;0.80;;
62588;SDS011;58504;48.770;9.148;2022-10-16T10:52:53;0.90;;;0.90;;
62588;SDS011;58504;48.770;9.148;2022-10-16T10:55:28;1.27;;;0.90;;
62588;SDS011;58504;48.770;9.148;2022-10-16T10:58:13;1.73;;;0.85;;
62588;SDS011;58504;48.770;9.148;2022-10-16T11:00:59;1.17;;;0.90;;
62588;SDS011;58504;48.770;9.148;2022-10-16T11:03:36;1.85;;;0.82;;
62588;SDS011;58504;48.770;9.148;2022-10-16T11:06:12;2.67;;;1.25;;
62588;SDS011;58504;48.770;9.148;2022-10-16T11:08:43;1.70;;;1.02;;
62588;SDS011;58504;48.770;9.148;2022-10-16T11:11:15;1.10;;;1.10;;
62588;SDS011;58504;48.770;9.148;2022-10-16T11:13:50;6.30;;;1.65;;
62588;SDS011;58504;48.770;9.148;2022-10-16T11:16:26;3.55;;;1.25;;
62588;SDS011;58504;48.770;9.148;2022-10-16T11:18:56;1.10;;;1.00;;
62588;SDS011;58504;48.770;9.148;2022-10-16T11:21:29;2.22;;;1.15;;
62588;SDS011;58504;48.770;9.148;2022-10-16T11:24:06;2.60;;;1.10;;
62588;SDS011;58504;48.770;9.148;2022-10-16T11:26:41;3.30;;;1.10;;
62588;SDS011;58504;48.770;9.148;2022-10-16T11:29:12;1.50;;;0.80;;
62588;SDS011;58504;48.770;9.148;2022-10-16T11:31:45;2.45;;;1.15;;
62588;SDS011;58504;48.770;9.148;2022-10-16T11:34:17;2.15;;;1.33;;
62588;SDS011;58504;48.770;9.148;2022-10-16T11:36:49;1.55;;;1.13;;
62588;SDS011;58504;48.770;9.148;2022-10-16T11:39:19;2.47;;;1.10;;
62588;SDS011;58504;48.770;9.148;2022-10-16T11:41:49;4.97;;;1.42;;
62588;SDS011;58504;48.770;9.148;2022-10-16T11:44:23;2.25;;;0.88;;
62588;SDS011;58504;48.770;9.148;2022-10-16T11:47:01;2.40;;;1.15;;
62588;SDS011;58504;48.770;9.148;2022-10-16T11:49:37;2.05;;;1.25;;
62588;SDS011;58504;48.770;9.148;2022-10-16T11:52:07;1.27;;;0.98;;
62588;SDS011;58504;48.770;9.148;2022-10-16T11:54:41;3.22;;;1.17;;
62588;SDS011;58504;48.770;9.148;2022-10-16T11:57:15;2.92;;;1.15;;
62588;SDS011;58504;48.770;9.148;2022-10-16T11:59:47;4.22;;;0.80;;
62588;SDS011;58504;48.770;9.148;2022-10-16T12:02:23;1.42;;;1.30;;
62588;SDS011;58504;48.770;9.148;2022-10-16T12:05:00;1.20;;;1.00;;
62588;SDS011;58504;48.770;9.148;2022-10-16T12:07:34;1.20;;;1.10;;
62588;SDS011;58504;48.770;9.148;2022-10-16T12:10:17;1.75;;;1.17;;
62588;SDS011;58504;48.770;9.148;2022-10-16T12:12:46;1.60;;;0.95;;
62588;SDS011;58504;48.770;9.148;2022-10-16T12:15:20;2.05;;;1.35;;
62588;SDS011;58504;48.770;9.148;2022-10-16T12:17:49;1.27;;;1.20;;
62588;SDS011;58504;48.770;9.148;2022-10-16T12:20:21;1.33;;;1.02;;
62588;SDS011;58504;48.770;9.148;2022-10-16T12:22:56;0.95;;;0.77;;
62588;SDS011;58504;48.770;9.148;2022-10-16T12:25:25;4.75;;;1.40;;
62588;SDS011;58504;48.770;9.148;2022-10-16T12:27:55;1.17;;;1.08;;
62588;SDS011;58504;48.770;9.148;2022-10-16T12:30:29;1.10;;;1.00;;
62588;SDS011;58504;48.770;9.148;2022-10-16T12:32:58;1.35;;;0.90;;
62588;SDS011;58504;48.770;9.148;2022-10-16T12:35:28;2.55;;;1.10;;
62588;SDS011;58504;48.770;9.148;2022-10-16T12:38:07;2.53;;;1.00;;
62588;SDS011;58504;48.770;9.148;2022-10-16T12:40:41;1.27;;;1.02;;
62588;SDS011;58504;48.770;9.148;2022-10-16T12:43:11;1.42;;;1.08;;
62588;SDS011;58504;48.770;9.148;2022-10-16T12:46:00;1.85;;;1.10;;
62588;SDS011;58504;48.770;9.148;2022-10-16T12:48:29;1.20;;;1.02;;
62588;SDS011;58504;48.770;9.148;2022-10-16T12:50:56;2.88;;;1.08;;
62588;SDS011;58504;48.770;9.148;2022-10-16T12:53:23;1.42;;;1.15;;
62588;SDS011;58504;48.770;9.148;2022-10-16T12:55:56;0.90;;;0.90;;
62588;SDS011;58504;48.770;9.148;2022-10-16T12:58:36;2.70;;;1.08;;
62588;SDS011;58504;48.770;9.148;2022-10-16T13:01:18;1.02;;;0.88;;
62588;SDS011;58504;48.770;9.148;2022-10-16T13:04:04;2.28;;;1.27;;
62588;SDS011;58504;48.770;9.148;2022-10-16T13:06:48;1.60;;;1.25;;
62588;SDS011;58504;48.770;9.148;2022-10-16T13:09:28;1.52;;;0.82;;
62588;SDS011;58504;48.770;9.148;2022-10-16T13:12:12;1.20;;;0.90;;
62588;SDS011;58504;48.770;9.148;2022-10-16T13:14:58;1.90;;;1.13;;
62588;SDS011;58504;48.770;9.148;2022-10-16T13:17:37;2.05;;;0.93;;
62588;SDS011;58504;48.770;9.148;2022-10-16T13:20:14;0.93;;;0.57;;
62588;SDS011;58504;48.770;9.148;2022-10-16T13:22:48;1.08;;;1.02;;
62588;SDS011;58504;48.770;9.148;2022-10-16T13:25:23;1.60;;;1.23;;
62588;SDS011;58504;48.770;9.148;2022-10-16T13:28:00;2.17;;;1.00;;
62588;SDS011;58504;48.770;9.148;2022-10-16T13:30:29;0.95;;;0.90;;
62588;SDS011;58504;48.770;9.148;2022-10-16T13:33:00;0.82;;;0.80;;
62588;SDS011;58504;48.770;9.148;2022-10-16T13:35:29;0.85;;;0.75;;
62588;SDS011;58504;48.770;9.148;2022-10-16T13:40:53;0.60;;;0.60;;
62588;SDS011;58504;48.770;9.148;2022-10-16T13:43:22;1.55;;;1.00;;
62588;SDS011;58504;48.770;9.148;2022-10-16T13:45:52;0.73;;;0.73;;
62588;SDS011;58504;48.770;9.148;2022-10-16T13:48:22;0.75;;;0.75;;
62588;SDS011;58504;48.770;9.148;2022-10-16T13:50:59;1.25;;;1.10;;
62588;SDS011;58504;48.770;9.148;2022-10-16T13:53:30;1.00;;;0.90;;
62588;SDS011;58504;48.770;9.148;2022-10-16T13:55:58;0.93;;;0.85;;
62588;SDS011;58504;48.770;9.148;2022-10-16T13:58:26;1.02;;;0.98;;
62588;SDS011;58504;48.770;9.148;2022-10-16T14:00:53;1.27;;;0.80;;
62588;SDS011;58504;48.770;9.148;2022-10-16T14:03:23;0.80;;;0.80;;
62588;SDS011;58504;48.770;9.148;2022-10-16T14:05:52;0.70;;;0.70;;
62588;SDS011;58504;48.770;9.148;2022-10-16T14:08:20;0.75;;;0.75;;
62588;SDS011;58504;48.770;9.148;2022-10-16T14:10:48;1.00;;;1.00;;
62588;SDS011;58504;48.770;9.148;2022-10-16T14:13:17;2.03;;;1.13;;
62588;SDS011;58504;48.770;9.148;2022-10-16T14:15:46;1.98;;;0.93;;
62588;SDS011;58504;48.770;9.148;2022-10-16T14:18:16;1.40;;;0.90;;
62588;SDS011;58504;48.770;9.148;2022-10-16T14:20:47;0.98;;;0.80;;
62588;SDS011;58504;48.770;9.148;2022-10-16T14:23:22;0.88;;;0.88;;
62588;SDS011;58504;48.770;9.148;2022-10-16T14:25:54;0.80;;;0.80;;
62588;SDS011;58504;48.770;9.148;2022-10-16T14:28:32;1.90;;;0.85;;
62588;SDS011;58504;48.770;9.148;2022-10-16T14:30:59;0.80;;;0.80;;
62588;SDS011;58504;48.770;9.148;2022-10-16T14:33:31;0.80;;;0.80;;
62588;SDS011;58504;48.770;9.148;2022-10-16T14:36:04;0.90;;;0.90;;
62588;SDS011;58504;48.770;9.148;2022-10-16T14:38:36;1.55;;;0.80;;
62588;SDS011;58504;48.770;9.148;2022-10-16T14:41:05;1.10;;;1.00;;
62588;SDS011;58504;48.770;9.148;2022-10-16T14:43:32;0.90;;;0.90;;
62588;SDS011;58504;48.770;9.148;2022-10-16T14:46:01;1.02;;;0.93;;
62588;SDS011;58504;48.770;9.148;2022-10-16T14:48:30;1.25;;;1.17;;
62588;SDS011;58504;48.770;9.148;2022-10-16T14:50:56;1.77;;;1.02;;
62588;SDS011;58504;48.770;9.148;2022-10-16T14:53:25;2.70;;;1.13;;
62588;SDS011;58504;48.770;9.148;2022-10-16T14:55:51;0.90;;;0.90;;
62588;SDS011;58504;48.770;9.148;2022-10-16T14:58:19;2.78;;;0.80;;
62588;SDS011;58504;48.770;9.148;2022-10-16T15:00:48;3.30;;;1.33;;
62588;SDS011;58504;48.770;9.148;2022-10-16T15:03:15;1.25;;;1.08;;
62588;SDS011;58504;48.770;9.148;2022-10-16T15:05:42;0.60;;;0.60;;
62588;SDS011;58504;48.770;9.148;2022-10-16T15:08:09;1.55;;;0.70;;
62588;SDS011;58504;48.770;9.148;2022-10-16T15:10:39;0.95;;;0.88;;
62588;SDS011;58504;48.770;9.148;2022-10-16T15:13:09;1.23;;;1.10;;
62588;SDS011;58504;48.770;9.148;2022-10-16T15:15:39;2.28;;;0.93;;
62588;SDS011;58504;48.770;9.148;2022-10-16T15:18:09;0.90;;;0.90;;